createdAt,value
2022-09-28T00:02:12.703Z,99255.66
2022-09-28T00:04:39.273Z,99261.25
2022-09-28T00:07:05.741Z,99253.09
2022-09-28T00:09:32.279Z,99257.25
2022-09-28T00:11:59.511Z,99251.38
2022-09-28T00:14:26.373Z,99256.47
2022-09-28T00:16:53.005Z,99256.34
2022-09-28T00:19:19.476Z,99258.75
2022-09-28T00:21:46.157Z,99250.56
2022-09-28T00:24:18.723Z,99254.94
2022-09-28T00:26:54.227Z,99249.03
2022-09-28T00:29:31.692Z,99257.59
2022-09-28T00:32:03.489Z,99258.41
2022-09-28T00:34:35.371Z,99256.75
2022-09-28T00:37:03.461Z,99253.31
2022-09-28T00:39:32.780Z,99252.38
2022-09-28T00:41:59.797Z,99247.22
2022-09-28T00:44:26.192Z,99254.34
2022-09-28T00:47:04.368Z,99251.75
2022-09-28T00:49:43.335Z,99249.94
2022-09-28T00:52:13.764Z,99240.00
2022-09-28T00:54:42.079Z,99245.47
2022-09-28T00:57:08.719Z,99242.41
2022-09-28T00:59:35.378Z,99233.59
2022-09-28T01:02:02.379Z,99237.03
2022-09-28T01:04:30.216Z,99233.97
2022-09-28T01:06:58.227Z,99236.09
2022-09-28T01:09:26.335Z,99226.84
2022-09-28T01:11:53.185Z,99229.63
2022-09-28T01:14:20.727Z,99231.81
2022-09-28T01:17:00.551Z,99237.63
2022-09-28T01:20:05.755Z,99227.81
2022-09-28T01:22:49.767Z,99235.41
2022-09-28T01:25:42.295Z,99233.47
2022-09-28T01:28:14.822Z,99234.19
2022-09-28T01:30:45.558Z,99234.81
2022-09-28T01:33:15.611Z,99231.94
2022-09-28T01:35:46.411Z,99232.41
2022-09-28T01:38:17.830Z,99236.63
2022-09-28T01:40:45.790Z,99238.44
2022-09-28T01:43:19.245Z,99236.56
2022-09-28T01:46:07.963Z,99235.38
2022-09-28T01:48:58.397Z,99238.13
2022-09-28T01:51:50.134Z,99238.94
2022-09-28T01:54:26.277Z,99240.63
2022-09-28T01:57:00.567Z,99232.41
2022-09-28T01:59:31.176Z,99235.19
2022-09-28T02:02:02.286Z,99231.50
2022-09-28T02:04:46.285Z,99231.28
2022-09-28T02:07:17.128Z,99228.78
2022-09-28T02:09:47.271Z,99224.81
2022-09-28T02:12:18.709Z,99229.25
2022-09-28T02:14:47.403Z,99230.44
2022-09-28T02:17:16.177Z,99227.00
2022-09-28T02:19:43.271Z,99228.78
2022-09-28T02:22:15.866Z,99218.25
2022-09-28T02:25:05.542Z,99220.75
2022-09-28T02:27:40.908Z,99214.88
2022-09-28T02:30:08.065Z,99219.31
2022-09-28T02:32:41.088Z,99222.72
2022-09-28T02:35:18.038Z,99223.28
2022-09-28T02:37:44.835Z,99228.31
2022-09-28T02:40:16.314Z,99221.44
2022-09-28T02:43:11.610Z,99228.47
2022-09-28T02:45:56.421Z,99228.63
2022-09-28T02:49:04.931Z,99230.91
2022-09-28T02:51:56.740Z,99236.53
2022-09-28T02:54:44.473Z,99244.22
2022-09-28T02:57:32.137Z,99246.63
2022-09-28T03:00:12.717Z,99241.94
2022-09-28T03:02:46.366Z,99240.44
2022-09-28T03:05:16.048Z,99239.22
2022-09-28T03:08:02.420Z,99229.91
2022-09-28T03:10:51.559Z,99239.09
2022-09-28T03:13:18.145Z,99228.69
2022-09-28T03:15:48.527Z,99236.66
2022-09-28T03:18:15.569Z,99233.38
2022-09-28T03:20:42.022Z,99230.69
2022-09-28T03:23:25.310Z,99232.06
2022-09-28T03:25:52.124Z,99226.25
2022-09-28T03:28:18.601Z,99228.19
2022-09-28T03:30:45.212Z,99222.94
2022-09-28T03:33:11.709Z,99218.69
2022-09-28T03:35:38.299Z,99217.72
2022-09-28T03:38:04.874Z,99218.56
2022-09-28T03:40:31.346Z,99216.09
2022-09-28T03:42:57.943Z,99214.31
2022-09-28T03:45:24.517Z,99214.44
2022-09-28T03:47:51.094Z,99210.88
2022-09-28T03:50:17.650Z,99208.88
2022-09-28T03:52:44.102Z,99211.84
2022-09-28T03:55:10.952Z,99219.94
2022-09-28T03:57:37.672Z,99223.47
2022-09-28T04:00:08.024Z,99208.38
2022-09-28T04:02:34.946Z,99210.81
2022-09-28T04:05:01.859Z,99211.38
2022-09-28T04:07:31.036Z,99206.16
2022-09-28T04:09:57.871Z,99202.91
2022-09-28T04:12:24.367Z,99206.00
2022-09-28T04:14:50.973Z,99212.84
2022-09-28T04:17:17.419Z,99204.50
2022-09-28T04:19:43.948Z,99195.72
2022-09-28T04:22:10.415Z,99202.66
2022-09-28T04:24:36.857Z,99197.47
2022-09-28T04:27:21.858Z,99200.63
2022-09-28T04:29:48.310Z,99200.09
2022-09-28T04:32:14.833Z,99206.31
2022-09-28T04:34:44.179Z,99199.38
2022-09-28T04:37:10.979Z,99200.25
2022-09-28T04:39:37.486Z,99192.50
2022-09-28T04:42:03.960Z,99196.66
2022-09-28T04:44:30.449Z,99198.16
2022-09-28T04:46:57.306Z,99209.66
2022-09-28T04:49:25.331Z,99204.72
2022-09-28T04:51:51.821Z,99213.22
2022-09-28T04:54:18.401Z,99201.03
2022-09-28T04:56:45.181Z,99202.72
2022-09-28T04:59:13.490Z,99205.03
2022-09-28T05:01:40.018Z,99193.63
2022-09-28T05:04:06.585Z,99201.38
2022-09-28T05:06:33.025Z,99211.09
2022-09-28T05:08:59.586Z,99213.19
2022-09-28T05:11:26.135Z,99211.69
2022-09-28T05:13:52.575Z,99206.13
2022-09-28T05:16:20.450Z,99205.53
2022-09-28T05:18:47.442Z,99205.66
2022-09-28T05:21:15.255Z,99204.47
2022-09-28T05:23:46.442Z,99206.38
2022-09-28T05:26:13.500Z,99206.22
2022-09-28T05:28:39.968Z,99199.34
2022-09-28T05:31:07.176Z,99203.47
2022-09-28T05:33:33.934Z,99202.84
2022-09-28T05:36:01.801Z,99200.28
2022-09-28T05:38:28.910Z,99200.91
2022-09-28T05:40:55.691Z,99203.03
2022-09-28T05:43:22.595Z,99203.97
2022-09-28T05:45:53.033Z,99197.78
2022-09-28T05:48:21.758Z,99198.44
2022-09-28T05:50:54.374Z,99196.56
2022-09-28T05:53:20.826Z,99201.38
2022-09-28T05:55:47.730Z,99196.38
2022-09-28T05:58:14.521Z,99197.25
2022-09-28T06:00:41.146Z,99205.03
2022-09-28T06:03:11.666Z,99197.19
2022-09-28T06:05:39.392Z,99196.25
2022-09-28T06:08:08.351Z,99210.28
2022-09-28T06:10:34.936Z,99205.50
2022-09-28T06:13:01.962Z,99209.69
2022-09-28T06:15:31.325Z,99214.28
2022-09-28T06:18:10.545Z,99209.44
2022-09-28T06:20:39.675Z,99219.41
2022-09-28T06:23:06.325Z,99213.47
2022-09-28T06:25:32.752Z,99213.56
2022-09-28T06:28:00.975Z,99213.03
2022-09-28T06:30:28.924Z,99222.84
2022-09-28T06:32:56.439Z,99220.25
2022-09-28T06:35:25.441Z,99220.06
2022-09-28T06:37:52.522Z,99222.00
2022-09-28T06:40:19.884Z,99229.84
2022-09-28T06:42:58.344Z,99226.16
2022-09-28T06:45:25.664Z,99223.78
2022-09-28T06:48:00.460Z,99225.84
2022-09-28T06:50:32.267Z,99236.03
2022-09-28T06:52:59.476Z,99234.94
2022-09-28T06:55:26.678Z,99234.69
2022-09-28T06:58:00.643Z,99235.84
2022-09-28T07:00:28.373Z,99243.09
2022-09-28T07:02:55.192Z,99246.75
2022-09-28T07:05:26.710Z,99251.81
2022-09-28T07:07:56.946Z,99247.09
2022-09-28T07:10:24.692Z,99255.69
2022-09-28T07:12:51.836Z,99256.84
2022-09-28T07:15:19.177Z,99261.94
2022-09-28T07:17:58.587Z,99269.84
2022-09-28T07:20:27.597Z,99274.88
2022-09-28T07:23:08.976Z,99275.34
2022-09-28T07:25:45.405Z,99274.19
2022-09-28T07:28:12.351Z,99270.41
2022-09-28T07:30:38.902Z,99275.13
2022-09-28T07:33:08.359Z,99276.19
2022-09-28T07:35:34.887Z,99279.63
2022-09-28T07:38:03.570Z,99274.47
2022-09-28T07:40:49.094Z,99277.59
2022-09-28T07:43:22.145Z,99273.44
2022-09-28T07:45:50.073Z,99282.91
2022-09-28T07:48:17.466Z,99282.94
2022-09-28T07:50:52.258Z,99286.41
2022-09-28T07:53:20.232Z,99292.19
2022-09-28T07:55:54.487Z,99287.13
2022-09-28T07:58:21.408Z,99289.97
2022-09-28T08:00:49.382Z,99289.25
2022-09-28T08:03:17.558Z,99290.97
2022-09-28T08:05:44.258Z,99286.81
2022-09-28T08:08:10.766Z,99291.38
2022-09-28T08:10:37.858Z,99282.84
2022-09-28T08:13:06.467Z,99279.75
2022-09-28T08:15:37.024Z,99291.84
2022-09-28T08:18:07.106Z,99301.56
2022-09-28T08:20:52.732Z,99297.22
2022-09-28T08:23:20.372Z,99293.56
2022-09-28T08:25:53.942Z,99300.66
2022-09-28T08:28:22.671Z,99306.31
2022-09-28T08:30:50.170Z,99301.66
2022-09-28T08:33:18.033Z,99309.16
2022-09-28T08:35:46.838Z,99301.50
2022-09-28T08:38:13.940Z,99300.00
2022-09-28T08:41:05.367Z,99310.09
2022-09-28T08:43:46.223Z,99299.47
2022-09-28T08:46:15.311Z,99314.69
2022-09-28T08:49:13.511Z,99309.13
2022-09-28T08:51:48.103Z,99314.94
2022-09-28T08:54:18.626Z,99316.59
2022-09-28T08:56:49.917Z,99314.16
2022-09-28T08:59:25.502Z,99312.28
2022-09-28T09:02:01.395Z,99309.97
2022-09-28T09:04:28.193Z,99317.31
2022-09-28T09:07:29.945Z,99323.13
2022-09-28T09:10:05.922Z,99314.34
2022-09-28T09:15:47.397Z,99321.06
2022-09-28T09:18:41.823Z,99326.84
2022-09-28T09:21:27.707Z,99319.16
2022-09-28T09:23:56.064Z,99327.84
2022-09-28T09:26:39.587Z,99333.63
2022-09-28T09:29:43.713Z,99337.78
2022-09-28T09:32:53.434Z,99329.69
2022-09-28T09:35:45.326Z,99327.31
2022-09-28T09:38:28.516Z,99335.47
2022-09-28T09:40:55.047Z,99331.69
2022-09-28T09:43:58.788Z,99330.09
2022-09-28T09:46:49.781Z,99339.34
2022-09-28T09:49:19.718Z,99331.16
2022-09-28T09:51:50.897Z,99339.63
2022-09-28T09:54:35.557Z,99346.47
2022-09-28T09:57:13.314Z,99345.59
2022-09-28T09:59:41.866Z,99340.13
2022-09-28T10:02:16.157Z,99338.69
2022-09-28T10:04:46.751Z,99343.88
2022-09-28T10:07:21.645Z,99343.56
2022-09-28T10:09:49.045Z,99342.69
2022-09-28T10:12:19.506Z,99346.06
2022-09-28T10:14:46.533Z,99343.63
2022-09-28T10:17:16.134Z,99331.53
2022-09-28T10:19:43.038Z,99336.75
2022-09-28T10:22:14.167Z,99346.38
2022-09-28T10:24:46.102Z,99331.47
2022-09-28T10:27:19.149Z,99341.78
2022-09-28T10:30:04.112Z,99344.06
2022-09-28T10:32:41.853Z,99348.03
2022-09-28T10:35:28.113Z,99344.06
2022-09-28T10:38:05.427Z,99350.53
2022-09-28T10:40:47.831Z,99349.22
2022-09-28T10:43:34.646Z,99345.81
2022-09-28T10:46:09.704Z,99350.19
2022-09-28T10:48:47.347Z,99350.31
2022-09-28T10:51:13.868Z,99355.03
2022-09-28T10:53:40.383Z,99350.09
2022-09-28T10:56:18.334Z,99349.75
2022-09-28T10:58:44.868Z,99350.25
2022-09-28T11:01:14.090Z,99353.16
2022-09-28T11:04:19.720Z,99351.28
2022-09-28T11:06:47.022Z,99356.53
2022-09-28T11:09:29.853Z,99357.25
2022-09-28T11:11:58.834Z,99358.53
2022-09-28T11:14:42.647Z,99345.47
2022-09-28T11:17:24.379Z,99355.97
2022-09-28T11:19:51.368Z,99359.75
2022-09-28T11:22:44.925Z,99365.50
2022-09-28T11:25:18.763Z,99369.59
2022-09-28T11:27:51.393Z,99369.41
2022-09-28T11:30:25.559Z,99363.34
2022-09-28T11:32:54.425Z,99369.63
2022-09-28T11:35:28.496Z,99362.47
2022-09-28T11:38:07.779Z,99364.22
2022-09-28T11:41:01.424Z,99371.50
2022-09-28T11:43:40.076Z,99374.72
2022-09-28T11:46:16.257Z,99372.66
2022-09-28T11:48:51.605Z,99373.19
2022-09-28T11:51:23.373Z,99377.28
2022-09-28T11:53:53.609Z,99366.63
2022-09-28T11:56:35.337Z,99361.09
2022-09-28T11:59:11.485Z,99358.50
2022-09-28T12:01:45.379Z,99360.75
2022-09-28T12:04:24.080Z,99352.22
2022-09-28T12:06:53.683Z,99353.38
2022-09-28T12:09:32.305Z,99355.78
2022-09-28T12:12:03.599Z,99358.69
2022-09-28T12:14:33.732Z,99356.41
2022-09-28T12:17:22.493Z,99357.06
2022-09-28T12:19:53.488Z,99370.06
2022-09-28T12:22:35.980Z,99365.84
2022-09-28T12:25:04.040Z,99357.06
2022-09-28T12:27:41.605Z,99360.66
2022-09-28T12:30:19.340Z,99360.53
2022-09-28T12:33:05.577Z,99366.09
2022-09-28T12:35:53.215Z,99361.81
2022-09-28T12:38:54.125Z,99360.72
2022-09-28T12:41:55.262Z,99364.09
2022-09-28T12:44:37.024Z,99371.41
2022-09-28T12:47:18.060Z,99366.59
2022-09-28T12:53:02.947Z,99363.28
2022-09-28T12:55:44.957Z,99367.06
2022-09-28T12:58:30.277Z,99365.28
2022-09-28T13:01:08.843Z,99369.38
2022-09-28T13:03:51.465Z,99365.19
2022-09-28T13:06:23.962Z,99371.03
2022-09-28T13:09:09.659Z,99366.22
2022-09-28T13:11:54.925Z,99367.53
2022-09-28T13:14:21.348Z,99365.59
2022-09-28T13:17:00.736Z,99371.56
2022-09-28T13:19:57.885Z,99371.66
2022-09-28T13:22:45.873Z,99368.44
2022-09-28T13:25:22.561Z,99372.63
2022-09-28T13:28:15.643Z,99371.22
2022-09-28T13:30:44.043Z,99367.06
2022-09-28T13:33:17.572Z,99377.94
2022-09-28T13:35:44.345Z,99371.72
2022-09-28T13:38:17.452Z,99377.81
2022-09-28T13:41:06.096Z,99377.28
2022-09-28T13:43:41.718Z,99384.72
2022-09-28T13:46:34.072Z,99386.38
2022-09-28T13:49:21.522Z,99381.00
2022-09-28T13:52:03.081Z,99384.34
2022-09-28T13:55:08.095Z,99380.09
2022-09-28T13:58:00.685Z,99389.56
2022-09-28T14:00:30.792Z,99396.06
2022-09-28T14:03:06.463Z,99394.41
2022-09-28T14:05:44.165Z,99396.72
2022-09-28T14:08:34.218Z,99407.56
2022-09-28T14:11:34.960Z,99414.88
2022-09-28T14:14:07.493Z,99414.66
2022-09-28T14:16:35.586Z,99413.69
2022-09-28T14:19:08.734Z,99413.91
2022-09-28T14:21:50.509Z,99421.25
2022-09-28T14:24:55.452Z,99408.25
2022-09-28T14:27:48.446Z,99420.22
2022-09-28T14:30:14.850Z,99424.44
2022-09-28T14:32:46.266Z,99426.72
2022-09-28T14:35:20.368Z,99429.28
2022-09-28T14:38:07.652Z,99427.41
2022-09-28T14:41:11.186Z,99434.16
2022-09-28T14:43:58.622Z,99436.13
2022-09-28T14:46:25.449Z,99430.88
2022-09-28T14:49:02.503Z,99439.31
2022-09-28T14:51:30.278Z,99443.69
2022-09-28T14:54:02.804Z,99448.31
2022-09-28T14:56:32.881Z,99437.59
2022-09-28T14:59:00.158Z,99446.28
2022-09-28T15:01:26.688Z,99448.72
2022-09-28T15:03:57.242Z,99450.28
2022-09-28T15:06:24.952Z,99449.28
2022-09-28T15:08:51.474Z,99444.28
2022-09-28T15:11:25.614Z,99453.56
2022-09-28T15:14:06.178Z,99454.81
2022-09-28T15:16:32.737Z,99449.75
2022-09-28T15:19:32.566Z,99449.94
2022-09-28T15:21:59.233Z,99446.75
2022-09-28T15:24:31.901Z,99446.53
2022-09-28T15:27:14.176Z,99446.50
2022-09-28T15:29:40.632Z,99452.75
2022-09-28T15:32:23.393Z,99458.75
2022-09-28T15:34:52.976Z,99448.59
2022-09-28T15:37:28.068Z,99446.00
2022-09-28T15:39:55.774Z,99447.53
2022-09-28T15:42:22.768Z,99450.09
2022-09-28T15:45:01.803Z,99443.59
2022-09-28T15:47:29.448Z,99439.19
2022-09-28T15:50:03.624Z,99437.59
2022-09-28T15:52:43.030Z,99443.06
2022-09-28T15:55:34.988Z,99443.66
2022-09-28T15:58:17.186Z,99445.00
2022-09-28T16:00:51.351Z,99444.91
2022-09-28T16:03:17.752Z,99448.66
2022-09-28T16:05:53.077Z,99444.16
2022-09-28T16:08:36.799Z,99441.88
2022-09-28T16:11:17.023Z,99444.50
2022-09-28T16:13:57.964Z,99438.53
2022-09-28T16:16:41.193Z,99449.81
2022-09-28T16:19:24.061Z,99447.47
2022-09-28T16:21:55.848Z,99450.06
2022-09-28T16:24:29.090Z,99451.63
2022-09-28T16:26:58.531Z,99444.59
2022-09-28T16:29:32.761Z,99449.69
2022-09-28T16:32:24.817Z,99447.94
2022-09-28T16:35:10.878Z,99443.03
2022-09-28T16:37:37.904Z,99453.25
2022-09-28T16:40:04.650Z,99449.81
2022-09-28T16:42:31.870Z,99456.16
2022-09-28T16:44:58.345Z,99459.69
2022-09-28T16:47:24.968Z,99457.13
2022-09-28T16:49:51.744Z,99453.13
2022-09-28T16:52:38.158Z,99462.56
2022-09-28T16:58:04.888Z,99464.63
2022-09-28T17:00:31.876Z,99463.00
2022-09-28T17:02:58.597Z,99468.09
2022-09-28T17:05:26.300Z,99471.69
2022-09-28T17:08:03.375Z,99472.38
2022-09-28T17:11:02.140Z,99470.75
2022-09-28T17:13:31.463Z,99470.84
2022-09-28T17:15:58.406Z,99475.28
2022-09-28T17:18:25.376Z,99471.91
2022-09-28T17:20:55.109Z,99478.00
2022-09-28T17:23:21.811Z,99484.09
2022-09-28T17:25:48.493Z,99485.22
2022-09-28T17:28:21.161Z,99481.53
2022-09-28T17:30:48.007Z,99492.97
2022-09-28T17:33:14.982Z,99486.91
2022-09-28T17:35:42.514Z,99493.19
2022-09-28T17:38:13.956Z,99493.09
2022-09-28T17:40:41.019Z,99501.00
2022-09-28T17:43:08.004Z,99500.09
2022-09-28T17:45:38.934Z,99502.00
2022-09-28T17:48:06.444Z,99504.63
2022-09-28T17:50:34.934Z,99496.78
2022-09-28T17:53:06.061Z,99502.00
2022-09-28T17:55:34.511Z,99501.22
2022-09-28T17:58:02.328Z,99509.81
2022-09-28T18:00:29.052Z,99507.34
2022-09-28T18:02:56.188Z,99506.63
2022-09-28T18:05:24.540Z,99503.94
2022-09-28T18:07:52.071Z,99510.06
2022-09-28T18:10:21.454Z,99518.88
2022-09-28T18:12:48.703Z,99517.06
2022-09-28T18:15:16.076Z,99521.47
2022-09-28T18:17:42.678Z,99518.78
2022-09-28T18:20:11.047Z,99517.03
2022-09-28T18:22:37.861Z,99520.53
2022-09-28T18:25:05.171Z,99525.03
2022-09-28T18:27:34.114Z,99530.25
2022-09-28T18:30:01.276Z,99525.03
2022-09-28T18:32:28.276Z,99529.38
2022-09-28T18:34:54.793Z,99529.38
2022-09-28T18:37:21.365Z,99527.59
2022-09-28T18:39:47.892Z,99534.53
2022-09-28T18:42:15.369Z,99531.91
2022-09-28T18:44:41.909Z,99537.19
2022-09-28T18:47:08.410Z,99545.81
2022-09-28T18:49:34.891Z,99537.22
2022-09-28T18:52:01.681Z,99546.78
2022-09-28T18:54:28.219Z,99547.66
2022-09-28T18:56:57.243Z,99554.59
2022-09-28T18:59:24.296Z,99556.38
2022-09-28T19:01:53.533Z,99563.28
2022-09-28T19:04:20.546Z,99569.34
2022-09-28T19:06:51.746Z,99570.22
2022-09-28T19:09:20.088Z,99562.41
2022-09-28T19:11:47.956Z,99566.78
2022-09-28T19:14:16.988Z,99569.38
2022-09-28T19:16:44.390Z,99570.25
2022-09-28T19:19:13.873Z,99572.03
2022-09-28T19:21:41.283Z,99574.59
2022-09-28T19:24:07.803Z,99567.69
2022-09-28T19:26:34.535Z,99566.81
2022-09-28T19:29:02.746Z,99565.09
2022-09-28T19:31:29.900Z,99569.41
2022-09-28T19:33:56.814Z,99564.22
2022-09-28T19:36:25.293Z,99577.19
2022-09-28T19:38:52.697Z,99573.72
2022-09-28T19:41:44.290Z,99572.03
2022-09-28T19:44:24.452Z,99578.94
2022-09-28T19:46:55.451Z,99579.81
2022-09-28T19:49:23.575Z,99577.22
2022-09-28T19:54:39.678Z,99578.94
2022-09-28T19:57:08.736Z,99587.63
2022-09-28T19:59:37.130Z,99585.88
2022-09-28T20:02:06.215Z,99580.66
2022-09-28T20:04:34.972Z,99590.19
2022-09-28T20:07:02.015Z,99585.00
2022-09-28T20:09:28.758Z,99585.00
2022-09-28T20:11:55.356Z,99597.13
2022-09-28T20:14:24.456Z,99600.59
2022-09-28T20:16:53.152Z,99599.72
2022-09-28T20:19:21.643Z,99598.88
2022-09-28T20:21:48.404Z,99604.09
2022-09-28T20:24:17.314Z,99603.19
2022-09-28T20:26:44.384Z,99608.31
2022-09-28T20:29:10.869Z,99606.59
2022-09-28T20:31:37.631Z,99601.44
2022-09-28T20:34:05.479Z,99606.63
2022-09-28T20:36:32.178Z,99603.19
2022-09-28T20:39:01.842Z,99610.13
2022-09-28T20:41:29.353Z,99605.75
2022-09-28T20:43:59.632Z,99607.50
2022-09-28T20:46:29.582Z,99611.88
2022-09-28T20:48:57.891Z,99615.34
2022-09-28T20:51:24.373Z,99616.19
2022-09-28T20:53:55.683Z,99610.13
2022-09-28T20:56:27.241Z,99611.03
2022-09-28T20:58:54.406Z,99615.34
2022-09-28T21:01:22.832Z,99617.06
2022-09-28T21:03:51.742Z,99617.06
2022-09-28T21:06:19.584Z,99616.22
2022-09-28T21:08:46.501Z,99612.72
2022-09-28T21:11:14.636Z,99617.06
2022-09-28T21:13:42.890Z,99618.81
2022-09-28T21:16:11.394Z,99617.94
2022-09-28T21:18:39.043Z,99619.63
2022-09-28T21:21:08.551Z,99618.78
2022-09-28T21:23:36.081Z,99618.78
2022-09-28T21:26:05.386Z,99622.25
2022-09-28T21:28:32.277Z,99624.00
2022-09-28T21:30:58.955Z,99626.59
2022-09-28T21:33:25.867Z,99630.09
2022-09-28T21:35:52.395Z,99623.97
2022-09-28T21:38:19.958Z,99623.13
2022-09-28T21:40:46.678Z,99624.84
2022-09-28T21:43:13.177Z,99626.56
2022-09-28T21:45:39.778Z,99631.75
2022-09-28T21:48:06.201Z,99634.34
2022-09-28T21:50:33.302Z,99630.94
2022-09-28T21:53:00.242Z,99631.78
2022-09-28T21:55:26.842Z,99624.88
2022-09-28T21:57:53.362Z,99628.34
2022-09-28T22:00:23.199Z,99635.25
2022-09-28T22:02:50.679Z,99639.59
2022-09-28T22:05:17.727Z,99630.06
2022-09-28T22:07:44.309Z,99637.00
2022-09-28T22:10:13.698Z,99632.66
2022-09-28T22:12:40.331Z,99633.50
2022-09-28T22:15:07.475Z,99627.44
2022-09-28T22:17:33.915Z,99634.41
2022-09-28T22:20:01.304Z,99633.50
2022-09-28T22:22:29.319Z,99635.22
2022-09-28T22:24:56.205Z,99636.13
2022-09-28T22:27:22.713Z,99638.72
2022-09-28T22:29:49.330Z,99643.03
2022-09-28T22:32:15.752Z,99639.56
2022-09-28T22:34:42.311Z,99645.63
2022-09-28T22:37:08.772Z,99640.44
2022-09-28T22:39:37.693Z,99647.38
2022-09-28T22:42:04.665Z,99650.84
2022-09-28T22:44:31.145Z,99649.97
2022-09-28T22:46:58.084Z,99653.44
2022-09-28T22:49:24.583Z,99648.22
2022-09-28T22:51:51.109Z,99643.88
2022-09-28T22:54:17.617Z,99644.75
2022-09-28T22:56:44.183Z,99646.50
2022-09-28T22:59:11.674Z,99653.47
2022-09-28T23:01:38.686Z,99658.66
2022-09-28T23:04:05.457Z,99660.38
2022-09-28T23:06:33.077Z,99650.88
2022-09-28T23:08:59.860Z,99657.78
2022-09-28T23:11:27.570Z,99657.78
2022-09-28T23:13:56.133Z,99659.50
2022-09-28T23:16:25.457Z,99656.06
2022-09-28T23:18:53.454Z,99654.31
2022-09-28T23:21:23.272Z,99657.75
2022-09-28T23:23:58.067Z,99661.09
2022-09-28T23:26:27.470Z,99657.75
2022-09-28T23:28:54.442Z,99660.38
2022-09-28T23:31:27.280Z,99652.59
2022-09-28T23:34:01.822Z,99655.16
2022-09-28T23:36:28.789Z,99655.19
2022-09-28T23:38:55.294Z,99655.19
2022-09-28T23:41:21.909Z,99658.69
2022-09-28T23:43:48.343Z,99657.78
2022-09-28T23:46:20.283Z,99663.88
2022-09-28T23:48:47.293Z,99657.78
2022-09-28T23:51:13.761Z,99658.66
2022-09-28T23:53:40.240Z,99662.97
2022-09-28T23:56:06.727Z,99658.66
2022-09-28T23:58:33.174Z,99661.25
